Keene Valley, NY

12:58 PM EST on December 26, 2014 (GMT -0500)
Middlebury State AP, Middlebu | Change Station
CLOSE
Current Station
Airport
Location: Middlebury State AP, Middlebu,
Elevation: 489 ft
Nearby Weather Stations

Elev 489 ft 43.98 °N, 73.10 °W | Updated 23 minutes ago

Overcast
Overcast
42 °F
Feels Like 39 °F
N
6
Wind Variable Wind from SSW

Today
High -- | Low -- °F
--% Chance of Precip.
Yesterday
High -- | Low -- °F
Precip. -- in
7:29 AM 4:22 PM
Waxing Crescent, 28% visible
Pressure 30.11 in
Visibility 10.0 miles
Clouds Scattered Clouds 3000 ft
Windchill 39 °F
Dew Point 30 °F
Humidity 62%
Rainfall 0.00 in
Snow Depth Not available.
UV 1 out of 12
Pollen .10 out of 12
Air Quality Not available.
Flu Activity Not available.
METAR K6B0 261735Z AUTO 21005KT 10SM SCT030 06/M01 A3011 RMK AO2 T00581009

More Conditions Fewer Conditions

Pressure 30.11 in
Visibility 10.0 miles
Clouds Scattered Clouds 3000 ft
Windchill 39 °F
Dew Point 30 °F
Humidity 62%
Rainfall 0.00 in
Snow Depth Not available.
UV 1 out of 12
Pollen .10 out of 12
Air Quality Not available.
Flu Activity Not available.
METAR K6B0 261735Z AUTO 21005KT 10SM SCT030 06/M01 A3011 RMK AO2 T00581009

More Conditions Fewer Conditions

10-Day Weather Forecast

Almanac

Astronomy

Dec. 26, 2014 Rise Set
Actual Time
Civil Twilight
Nautical Twilight
Astronomical Twilight
Moon
Length of Visible Light
Length of Day
Tomorrow will be .
, % of the Moon is Illuminated

Today's Extremes

State Highs State Lows

Community

WunderPhotos

Upload Photos

1,780,654 photos uploaded!

WunderBlogs® & News

Nearby

Air Quality

  Air Quality AQ Index Pollutant
Not available.

Snow Depth

Station Depth Elevation

Earthquake Activity

City Distance Mag. Time & Date
Minimum magnitude displayed is 2.5.

Coastal Water Temperatures

Place Temperature

Nearby Weather Stations